createdAt,value
2019-03-16T00:03:47.457Z,90.04
2019-03-16T00:07:49.348Z,90.26
2019-03-16T00:11:51.313Z,90.41
2019-03-16T00:15:53.330Z,90.32
2019-03-16T00:19:55.236Z,91.06
2019-03-16T00:23:57.141Z,91.54
2019-03-16T00:27:59.061Z,91.99
2019-03-16T00:32:12.893Z,92.23
2019-03-16T00:36:04.562Z,92.62
2019-03-16T00:40:09.911Z,90.05
2019-03-16T00:44:11.819Z,88.92
2019-03-16T00:48:13.723Z,89.84
2019-03-16T00:52:15.628Z,91.20
2019-03-16T00:56:17.529Z,91.34
2019-03-16T01:00:19.507Z,91.24
2019-03-16T01:04:21.437Z,90.73
2019-03-16T01:08:23.402Z,91.59
2019-03-16T01:12:25.290Z,91.82
2019-03-16T01:16:27.195Z,91.49
2019-03-16T01:20:29.363Z,91.53
2019-03-16T01:24:31.261Z,91.58
2019-03-16T01:28:33.189Z,91.62
2019-03-16T01:32:40.866Z,92.10
2019-03-16T01:36:39.515Z,92.21
2019-03-16T01:40:41.422Z,92.30
2019-03-16T01:44:43.440Z,92.01
2019-03-16T01:48:45.428Z,92.16
2019-03-16T01:52:47.393Z,92.27
2019-03-16T01:57:03.907Z,92.63
2019-03-16T02:01:05.802Z,92.90
2019-03-16T02:05:08.601Z,93.18
2019-03-16T02:09:10.497Z,93.33
2019-03-16T02:13:12.408Z,93.28
2019-03-16T02:17:14.572Z,93.19
2019-03-16T02:21:16.491Z,93.26
2019-03-16T02:25:18.376Z,92.82
2019-03-16T02:29:20.278Z,91.42
2019-03-16T02:33:22.183Z,91.00
2019-03-16T02:37:24.145Z,91.46
2019-03-16T02:41:26.108Z,90.19
2019-03-16T02:45:28.004Z,89.30
2019-03-16T02:49:29.907Z,89.15
2019-03-16T02:53:31.791Z,89.62
2019-03-16T02:57:33.694Z,89.59
2019-03-16T03:01:36.050Z,90.02
2019-03-16T03:05:38.046Z,90.92
2019-03-16T03:09:39.995Z,90.80
2019-03-16T03:13:41.894Z,91.08
2019-03-16T03:17:43.794Z,90.75
2019-03-16T03:21:45.916Z,90.23
2019-03-16T03:25:47.905Z,90.44
2019-03-16T03:29:49.799Z,90.77
2019-03-16T03:33:59.919Z,90.87
2019-03-16T03:37:55.289Z,90.66
2019-03-16T03:41:57.550Z,91.12
2019-03-16T03:45:59.447Z,90.88
2019-03-16T03:50:01.605Z,90.92
2019-03-16T03:54:03.496Z,91.58
2019-03-16T03:58:05.465Z,91.53
2019-03-16T04:02:07.370Z,91.69
2019-03-16T04:06:09.270Z,91.68
2019-03-16T04:10:12.471Z,91.19
2019-03-16T04:14:14.356Z,91.36
2019-03-16T04:18:16.311Z,91.15
2019-03-16T04:22:19.197Z,90.80
2019-03-16T04:26:21.102Z,90.93
2019-03-16T04:30:23.001Z,90.80
2019-03-16T04:34:29.444Z,91.52
2019-03-16T04:38:28.493Z,91.23
2019-03-16T04:42:30.402Z,91.19
2019-03-16T04:46:32.295Z,91.52
2019-03-16T04:50:36.091Z,91.74
2019-03-16T04:54:38.344Z,91.46
2019-03-16T04:58:40.231Z,91.63
2019-03-16T05:02:42.765Z,91.85
2019-03-16T05:06:44.732Z,91.84
2019-03-16T05:10:46.679Z,92.15
2019-03-16T05:14:48.573Z,91.83
2019-03-16T05:18:50.461Z,91.65
2019-03-16T05:22:52.430Z,91.90
2019-03-16T05:26:54.326Z,91.91
2019-03-16T05:30:56.296Z,91.75
2019-03-16T05:34:58.193Z,91.90
2019-03-16T05:39:00.084Z,92.12
2019-03-16T05:43:01.992Z,92.44
2019-03-16T05:47:03.964Z,92.54
2019-03-16T05:51:05.872Z,92.25
2019-03-16T05:55:07.891Z,92.07
2019-03-16T05:59:09.898Z,91.72
2019-03-16T06:03:11.808Z,91.99
2019-03-16T06:07:13.723Z,92.28
2019-03-16T06:11:15.624Z,92.05
2019-03-16T06:15:17.766Z,92.41
2019-03-16T06:19:19.669Z,92.42
2019-03-16T06:23:23.369Z,92.53
2019-03-16T06:27:25.377Z,92.60
2019-03-16T06:31:27.288Z,92.62
2019-03-16T06:35:29.583Z,92.14
2019-03-16T06:39:31.656Z,92.15
2019-03-16T06:43:33.560Z,92.38
2019-03-16T06:47:36.204Z,92.58
2019-03-16T06:51:38.116Z,92.78
2019-03-16T06:55:40.006Z,92.79
2019-03-16T06:59:41.895Z,92.99
2019-03-16T07:03:43.792Z,92.63
2019-03-16T07:07:45.688Z,92.81
2019-03-16T07:11:47.664Z,93.16
2019-03-16T07:15:49.567Z,93.25
2019-03-16T07:19:51.469Z,93.34
2019-03-16T07:23:53.365Z,93.64
2019-03-16T07:27:55.248Z,93.49
2019-03-16T07:31:57.170Z,93.37
2019-03-16T07:35:59.068Z,93.21
2019-03-16T07:40:01.500Z,93.19
2019-03-16T07:44:03.471Z,93.22
2019-03-16T07:48:05.432Z,93.28
2019-03-16T07:52:07.331Z,93.47
2019-03-16T07:56:09.233Z,93.70
2019-03-16T08:00:13.385Z,93.65
2019-03-16T08:04:15.298Z,93.64
2019-03-16T08:08:17.185Z,93.44
2019-03-16T08:12:19.087Z,93.33
2019-03-16T08:16:20.988Z,93.15
2019-03-16T08:20:22.895Z,92.42
2019-03-16T08:24:24.805Z,92.09
2019-03-16T08:28:26.801Z,91.93
2019-03-16T08:32:28.714Z,91.54
2019-03-16T08:36:30.617Z,91.77
2019-03-16T08:40:32.639Z,91.76
2019-03-16T08:44:34.718Z,91.90
2019-03-16T08:48:36.652Z,92.06
2019-03-16T08:52:38.585Z,92.23
2019-03-16T08:56:40.490Z,92.49
2019-03-16T09:00:42.382Z,92.67
2019-03-16T09:04:44.318Z,92.53
2019-03-16T09:08:46.248Z,92.93
2019-03-16T09:12:54.896Z,93.41
2019-03-16T09:16:51.811Z,93.81
2019-03-16T09:20:53.704Z,94.28
2019-03-16T09:24:55.604Z,94.54
2019-03-16T09:29:00.326Z,94.27
2019-03-16T09:33:01.885Z,93.64
2019-03-16T09:37:03.834Z,92.96
2019-03-16T09:41:05.799Z,92.72
2019-03-16T09:45:32.730Z,92.87
2019-03-16T09:49:34.616Z,92.47
2019-03-16T09:53:36.514Z,91.31
2019-03-16T09:57:38.419Z,91.58
2019-03-16T10:01:40.326Z,91.26
2019-03-16T10:05:42.244Z,91.17
2019-03-16T10:09:44.137Z,90.36
2019-03-16T10:13:46.043Z,91.02
2019-03-16T10:17:48.048Z,90.72
2019-03-16T10:21:49.959Z,90.92
2019-03-16T10:25:51.868Z,91.05
2019-03-16T10:29:53.754Z,91.16
2019-03-16T10:33:55.660Z,91.01
2019-03-16T10:37:57.560Z,91.22
2019-03-16T10:41:59.480Z,91.08
2019-03-16T10:46:01.396Z,91.19
2019-03-16T10:50:03.277Z,91.29
2019-03-16T10:54:05.193Z,91.60
2019-03-16T10:58:27.081Z,91.18
2019-03-16T11:02:28.976Z,91.29
2019-03-16T11:06:30.883Z,90.80
2019-03-16T11:10:32.769Z,91.11
2019-03-16T11:14:34.722Z,91.11
2019-03-16T11:18:36.802Z,91.45
2019-03-16T11:22:38.694Z,89.79
2019-03-16T11:26:40.649Z,90.65
2019-03-16T11:30:42.533Z,90.17
2019-03-16T11:34:44.517Z,90.33
2019-03-16T11:38:46.409Z,89.68
2019-03-16T11:42:48.335Z,89.67
2019-03-16T11:46:50.239Z,89.51
2019-03-16T11:50:52.494Z,89.19
2019-03-16T11:54:54.376Z,89.31
2019-03-16T11:58:56.330Z,89.80
2019-03-16T12:02:58.233Z,90.07
2019-03-16T12:07:00.137Z,88.60
2019-03-16T12:11:02.015Z,89.13
2019-03-16T12:15:05.647Z,87.92
2019-03-16T12:19:07.530Z,86.77
2019-03-16T12:23:09.474Z,86.34
2019-03-16T12:27:11.363Z,86.37
2019-03-16T12:31:13.276Z,85.68
2019-03-16T12:35:15.169Z,85.24
2019-03-16T12:39:17.081Z,85.52
2019-03-16T12:43:18.977Z,85.03
2019-03-16T12:47:24.724Z,85.41
2019-03-16T12:51:26.637Z,85.71
2019-03-16T12:55:28.539Z,85.79
2019-03-16T12:59:30.421Z,86.23
2019-03-16T13:03:32.332Z,86.49
2019-03-16T13:07:34.232Z,85.75
2019-03-16T13:11:36.337Z,86.66
2019-03-16T13:15:38.243Z,86.53
2019-03-16T13:19:41.133Z,86.63
2019-03-16T13:23:43.047Z,86.83
2019-03-16T13:27:44.974Z,85.54
2019-03-16T13:31:46.844Z,84.08
2019-03-16T13:35:48.747Z,85.39
2019-03-16T13:39:50.649Z,84.64
2019-03-16T13:43:52.544Z,84.74
2019-03-16T13:47:55.418Z,83.79
2019-03-16T13:51:57.330Z,83.16
2019-03-16T13:55:59.411Z,81.97
2019-03-16T14:00:11.134Z,81.50
2019-03-16T14:04:05.524Z,81.26
2019-03-16T14:08:07.431Z,81.14
2019-03-16T14:12:09.605Z,78.68
2019-03-16T14:16:11.786Z,79.64
2019-03-16T14:20:15.791Z,79.93
2019-03-16T14:24:17.700Z,80.42
2019-03-16T14:28:19.597Z,80.82
2019-03-16T14:32:21.477Z,81.46
2019-03-16T14:36:23.452Z,81.46
2019-03-16T14:40:25.387Z,80.50
2019-03-16T14:44:27.263Z,79.15
2019-03-16T14:48:29.180Z,78.84
2019-03-16T14:52:31.085Z,77.17
2019-03-16T14:56:32.999Z,76.18
2019-03-16T15:00:38.657Z,74.60
2019-03-16T15:04:38.528Z,76.16
2019-03-16T15:08:40.449Z,74.72
2019-03-16T15:12:42.355Z,73.65
2019-03-16T15:16:44.263Z,74.17
2019-03-16T15:20:47.258Z,74.70
2019-03-16T15:24:49.171Z,74.17
2019-03-16T15:28:54.953Z,74.02
2019-03-16T15:32:54.749Z,74.35
2019-03-16T15:36:56.665Z,74.20
2019-03-16T15:40:59.016Z,72.59
2019-03-16T15:45:19.794Z,71.81
2019-03-16T15:49:40.447Z,70.70
2019-03-16T15:53:55.234Z,71.36
2019-03-16T15:58:07.420Z,70.89
2019-03-16T16:02:00.774Z,72.29
2019-03-16T16:06:02.701Z,72.65
2019-03-16T16:10:13.220Z,72.94
2019-03-16T16:14:15.215Z,73.88
2019-03-16T16:18:17.201Z,73.45
2019-03-16T16:22:19.182Z,74.03
2019-03-16T16:26:21.112Z,74.95
2019-03-16T16:30:23.352Z,74.98
2019-03-16T16:34:25.414Z,75.62
2019-03-16T16:38:27.299Z,75.39
2019-03-16T16:42:29.185Z,75.17
2019-03-16T16:46:31.117Z,75.20
2019-03-16T16:50:33.029Z,76.07
2019-03-16T16:54:37.563Z,76.13
2019-03-16T16:58:38.511Z,76.83
2019-03-16T17:02:40.445Z,76.90
2019-03-16T17:06:43.310Z,76.43
2019-03-16T17:10:45.222Z,78.50
2019-03-16T17:14:47.101Z,79.76
2019-03-16T17:18:49.022Z,80.39
2019-03-16T17:22:50.929Z,80.00
2019-03-16T17:26:52.841Z,80.10
2019-03-16T17:30:56.653Z,80.39
2019-03-16T17:34:58.539Z,80.71
2019-03-16T17:39:00.449Z,80.81
2019-03-16T17:43:02.438Z,81.89
2019-03-16T17:47:04.383Z,82.41
2019-03-16T17:51:06.238Z,82.84
2019-03-16T17:55:17.813Z,83.64
2019-03-16T17:59:19.705Z,84.09
2019-03-16T18:03:21.636Z,84.27
2019-03-16T18:07:23.603Z,84.65
2019-03-16T18:11:25.516Z,85.02
2019-03-16T18:15:27.401Z,86.12
2019-03-16T18:19:29.324Z,85.78
2019-03-16T18:23:31.209Z,85.93
2019-03-16T18:27:33.162Z,86.04
2019-03-16T18:31:35.060Z,86.26
2019-03-16T18:35:36.965Z,85.68
2019-03-16T18:39:38.871Z,85.96
2019-03-16T18:43:40.752Z,86.42
2019-03-16T18:47:42.653Z,86.31
2019-03-16T18:51:44.562Z,86.46
2019-03-16T18:55:46.465Z,86.71
2019-03-16T18:59:48.423Z,86.77
2019-03-16T19:03:50.405Z,86.77
2019-03-16T19:07:52.401Z,86.91
2019-03-16T19:11:54.267Z,86.86
2019-03-16T19:15:59.025Z,86.88
2019-03-16T19:19:59.830Z,87.35
2019-03-16T19:24:01.808Z,87.34
2019-03-16T19:28:03.786Z,87.38
2019-03-16T19:32:05.758Z,87.25
2019-03-16T19:36:07.661Z,87.04
2019-03-16T19:40:19.975Z,87.03
2019-03-16T19:44:21.880Z,87.06
2019-03-16T19:48:23.762Z,87.18
2019-03-16T19:52:25.672Z,87.08
2019-03-16T19:56:27.577Z,86.83
2019-03-16T20:00:29.560Z,86.66
2019-03-16T20:04:36.312Z,86.52
2019-03-16T20:08:35.081Z,86.55
2019-03-16T20:12:36.997Z,86.39
2019-03-16T20:16:38.873Z,86.46
2019-03-16T20:20:41.889Z,86.39
2019-03-16T20:24:43.783Z,86.85
2019-03-16T20:28:45.718Z,87.30
2019-03-16T20:32:48.594Z,87.74
2019-03-16T20:36:51.265Z,88.02
2019-03-16T20:40:53.164Z,88.33
2019-03-16T20:44:55.058Z,88.41
2019-03-16T20:48:56.960Z,88.28
2019-03-16T20:52:58.968Z,88.40
2019-03-16T20:57:01.757Z,88.28
2019-03-16T21:01:03.755Z,88.18
2019-03-16T21:05:08.937Z,88.23
2019-03-16T21:09:10.850Z,88.11
2019-03-16T21:13:13.559Z,87.85
2019-03-16T21:17:15.454Z,88.06
2019-03-16T21:21:17.340Z,88.08
2019-03-16T21:25:19.578Z,88.16
2019-03-16T21:29:21.461Z,88.14
2019-03-16T21:33:29.517Z,87.62
2019-03-16T21:37:27.202Z,87.50
2019-03-16T21:41:29.089Z,87.61
2019-03-16T21:45:30.997Z,87.90
2019-03-16T21:49:51.834Z,88.31
2019-03-16T21:53:54.849Z,88.32
2019-03-16T21:57:56.762Z,88.59
2019-03-16T22:01:58.737Z,88.65
2019-03-16T22:06:00.636Z,88.37
2019-03-16T22:10:02.545Z,88.37
2019-03-16T22:14:04.780Z,88.49
2019-03-16T22:18:06.672Z,88.97
2019-03-16T22:22:08.928Z,89.21
2019-03-16T22:26:11.719Z,89.52
2019-03-16T22:30:18.570Z,89.54
2019-03-16T22:34:20.474Z,89.55
2019-03-16T22:38:22.416Z,89.18
2019-03-16T22:42:25.492Z,88.97
2019-03-16T22:46:27.375Z,88.91
2019-03-16T22:50:29.286Z,89.15
2019-03-16T22:54:31.200Z,89.34
2019-03-16T22:58:33.099Z,89.12
2019-03-16T23:02:35.094Z,89.01
2019-03-16T23:06:36.986Z,88.96
2019-03-16T23:10:38.881Z,88.93
2019-03-16T23:14:40.849Z,88.79
2019-03-16T23:18:42.802Z,88.74
2019-03-16T23:22:44.711Z,88.35
2019-03-16T23:26:47.567Z,88.58
2019-03-16T23:30:49.545Z,88.64
2019-03-16T23:34:51.525Z,88.60
2019-03-16T23:38:53.430Z,88.59
2019-03-16T23:42:55.329Z,88.69
2019-03-16T23:46:57.216Z,88.91
2019-03-16T23:50:59.146Z,89.66
2019-03-16T23:55:01.371Z,90.22
2019-03-16T23:59:03.352Z,90.64
